Terminal Aerodrome Forecast
Issued by NWS Mt. Holly, NJ

Home | Current Version | Previous Version | Text Only | Print | Product List | Glossary On
Versions: 1 2 3 4 5 6 7 8 9 10 11 12 13 14 15 16 17 18 19 20 21 22 23 24 25 26 27 28 29 30 31 32
378
FTUS41 KPHI 241136
TAFPHL
TAF
KPHL 241136Z 2412/2518 32011KT P6SM OVC035
     FM241400 31012G20KT P6SM SCT040 BKN060
     FM241600 30012KT P6SM SCT250
     FM242200 27007KT P6SM FEW250
     FM250500 30004KT P6SM FEW070=

USA.gov is the U.S. government's official web portal to all federal, state and local government web resources and services.